createdAt,value
2023-05-11T00:00:00.705Z,9.29
2023-05-11T00:02:46.034Z,9.23
2023-05-11T00:05:29.486Z,9.16
2023-05-11T00:08:14.930Z,9.19
2023-05-11T00:11:00.879Z,9.30
2023-05-11T00:13:45.990Z,9.36
2023-05-11T00:16:29.230Z,9.42
2023-05-11T00:19:13.937Z,9.43
2023-05-11T00:21:57.350Z,9.48
2023-05-11T00:24:40.518Z,9.52
2023-05-11T00:27:24.026Z,9.46
2023-05-11T00:30:08.797Z,9.44
2023-05-11T00:32:52.676Z,9.37
2023-05-11T00:35:37.255Z,9.31
2023-05-11T00:38:20.805Z,9.32
2023-05-11T00:41:04.309Z,9.40
2023-05-11T00:43:48.629Z,9.35
2023-05-11T00:46:32.497Z,9.38
2023-05-11T00:49:17.435Z,9.38
2023-05-11T00:52:03.170Z,9.40
2023-05-11T00:54:48.801Z,9.29
2023-05-11T00:57:33.415Z,9.22
2023-05-11T01:00:17.425Z,9.11
2023-05-11T01:03:02.944Z,9.02
2023-05-11T01:05:54.067Z,9.06
2023-05-11T01:08:45.145Z,9.06
2023-05-11T01:11:57.830Z,9.09
2023-05-11T01:14:46.648Z,9.05
2023-05-11T01:17:44.170Z,9.07
2023-05-11T01:20:30.841Z,8.98
2023-05-11T01:23:46.321Z,8.96
2023-05-11T01:26:42.715Z,9.00
2023-05-11T01:29:46.349Z,9.04
2023-05-11T01:32:35.848Z,8.96
2023-05-11T01:35:22.470Z,9.04
2023-05-11T01:38:11.987Z,9.04
2023-05-11T01:40:59.113Z,9.07
2023-05-11T01:43:46.811Z,9.16
2023-05-11T01:46:34.163Z,9.09
2023-05-11T01:49:20.800Z,9.01
2023-05-11T01:52:05.363Z,9.06
2023-05-11T01:54:51.030Z,9.03
2023-05-11T01:57:36.790Z,8.93
2023-05-11T02:00:21.224Z,8.85
2023-05-11T02:03:08.912Z,8.87
2023-05-11T02:05:54.813Z,8.79
2023-05-11T02:08:40.919Z,8.75
2023-05-11T02:11:27.864Z,8.67
2023-05-11T02:14:13.270Z,8.65
2023-05-11T02:16:58.792Z,8.60
2023-05-11T02:19:45.734Z,8.67
2023-05-11T02:22:32.145Z,8.63
2023-05-11T02:25:19.878Z,8.68
2023-05-11T02:28:03.227Z,8.76
2023-05-11T02:30:48.235Z,8.69
2023-05-11T02:33:36.545Z,8.68
2023-05-11T02:36:23.506Z,8.62
2023-05-11T02:39:13.848Z,8.57
2023-05-11T02:41:59.550Z,8.64
2023-05-11T02:44:50.722Z,8.55
2023-05-11T02:47:37.956Z,8.43
2023-05-11T02:50:24.447Z,8.42
2023-05-11T02:53:11.840Z,8.47
2023-05-11T02:55:57.566Z,8.37
2023-05-11T02:58:43.354Z,8.22
2023-05-11T03:01:29.687Z,8.28
2023-05-11T03:04:14.124Z,8.18
2023-05-11T03:06:57.729Z,8.31
2023-05-11T03:09:41.057Z,8.29
2023-05-11T03:12:25.973Z,8.10
2023-05-11T03:15:13.840Z,8.14
2023-05-11T03:17:58.235Z,8.16
2023-05-11T03:20:44.533Z,8.10
2023-05-11T03:23:29.488Z,8.03
2023-05-11T03:26:14.330Z,8.01
2023-05-11T03:29:01.646Z,8.09
2023-05-11T03:31:45.644Z,8.12
2023-05-11T03:34:28.932Z,8.10
2023-05-11T03:37:14.574Z,8.08
2023-05-11T03:40:01.190Z,8.21
2023-05-11T03:42:47.047Z,8.08
2023-05-11T03:45:33.153Z,8.04
2023-05-11T03:48:17.914Z,8.05
2023-05-11T03:51:01.624Z,8.07
2023-05-11T03:53:46.434Z,8.09
2023-05-11T03:56:32.690Z,8.11
2023-05-11T03:59:16.963Z,8.08
2023-05-11T04:02:01.965Z,8.06
2023-05-11T04:04:46.246Z,8.09
2023-05-11T04:07:31.419Z,8.00
2023-05-11T04:10:15.853Z,8.05
2023-05-11T04:12:59.262Z,8.10
2023-05-11T04:15:42.542Z,8.08
2023-05-11T04:18:27.336Z,8.01
2023-05-11T04:21:10.746Z,8.12
2023-05-11T04:23:53.904Z,7.95
2023-05-11T04:26:37.173Z,8.06
2023-05-11T04:29:28.296Z,8.03
2023-05-11T04:32:11.675Z,7.71
2023-05-11T04:35:19.581Z,8.01
2023-05-11T04:38:03.342Z,7.97
2023-05-11T04:40:48.133Z,7.97
2023-05-11T04:43:31.366Z,8.01
2023-05-11T04:46:20.180Z,8.03
2023-05-11T04:49:04.306Z,8.01
2023-05-11T04:51:51.261Z,7.95
2023-05-11T04:54:34.520Z,7.99
2023-05-11T04:57:18.969Z,8.00
2023-05-11T05:00:02.532Z,8.04
2023-05-11T05:02:46.200Z,8.08
2023-05-11T05:05:29.482Z,7.91
2023-05-11T05:08:14.366Z,7.95
2023-05-11T05:10:57.617Z,7.99
2023-05-11T05:13:44.610Z,8.10
2023-05-11T05:16:28.393Z,7.95
2023-05-11T05:19:13.012Z,8.00
2023-05-11T05:21:56.252Z,8.05
2023-05-11T05:24:40.814Z,8.08
2023-05-11T05:27:24.046Z,8.00
2023-05-11T05:30:08.643Z,8.04
2023-05-11T05:32:52.169Z,8.01
2023-05-11T05:35:35.654Z,8.01
2023-05-11T05:38:18.860Z,8.10
2023-05-11T05:41:03.604Z,8.15
2023-05-11T05:43:46.973Z,8.19
2023-05-11T05:46:30.228Z,8.17
2023-05-11T05:49:15.396Z,8.23
2023-05-11T05:51:58.647Z,8.29
2023-05-11T05:54:43.066Z,8.33
2023-05-11T05:57:30.745Z,8.37
2023-05-11T06:00:15.853Z,8.30
2023-05-11T06:02:59.210Z,8.17
2023-05-11T06:05:42.647Z,8.19
2023-05-11T06:08:26.076Z,8.21
2023-05-11T06:11:09.497Z,8.35
2023-05-11T06:13:54.001Z,8.44
2023-05-11T06:16:37.093Z,8.43
2023-05-11T06:22:23.690Z,8.29
2023-05-11T06:25:07.880Z,8.28
2023-05-11T06:27:54.177Z,8.29
2023-05-11T06:30:38.813Z,8.38
2023-05-11T06:33:22.586Z,8.43
2023-05-11T06:36:06.716Z,8.36
2023-05-11T06:38:50.116Z,8.39
2023-05-11T06:41:33.225Z,8.43
2023-05-11T06:44:16.348Z,8.48
2023-05-11T06:47:01.443Z,8.62
2023-05-11T06:49:45.350Z,8.62
2023-05-11T06:52:28.696Z,8.62
2023-05-11T06:55:14.632Z,8.65
2023-05-11T06:57:58.427Z,8.60
2023-05-11T07:00:41.938Z,8.90
2023-05-11T07:03:26.847Z,9.04
2023-05-11T07:06:10.259Z,9.08
2023-05-11T07:08:56.713Z,9.35
2023-05-11T07:11:39.862Z,9.48
2023-05-11T07:14:23.061Z,9.62
2023-05-11T07:17:06.482Z,9.71
2023-05-11T07:19:55.119Z,9.90
2023-05-11T07:22:38.346Z,9.97
2023-05-11T07:25:21.982Z,10.07
2023-05-11T07:28:05.127Z,10.10
2023-05-11T07:30:48.935Z,9.98
2023-05-11T07:33:33.607Z,10.07
2023-05-11T07:36:18.483Z,10.30
2023-05-11T07:39:01.969Z,10.39
2023-05-11T07:41:46.532Z,10.61
2023-05-11T07:44:29.746Z,10.87
2023-05-11T07:47:13.448Z,11.37
2023-05-11T07:49:57.637Z,11.68
2023-05-11T07:52:42.282Z,11.67
2023-05-11T07:55:26.417Z,11.57
2023-05-11T07:58:09.690Z,11.22
2023-05-11T08:00:52.971Z,11.15
2023-05-11T08:03:36.266Z,11.08
2023-05-11T08:06:19.850Z,10.95
2023-05-11T08:09:06.212Z,10.97
2023-05-11T08:11:49.779Z,11.22
2023-05-11T08:14:34.539Z,11.30
2023-05-11T08:17:18.076Z,11.29
2023-05-11T08:20:02.552Z,11.22
2023-05-11T08:22:52.995Z,11.20
2023-05-11T08:25:37.652Z,11.40
2023-05-11T08:28:21.821Z,11.76
2023-05-11T08:31:05.664Z,11.84
2023-05-11T08:33:48.930Z,11.97
2023-05-11T08:36:32.149Z,12.35
2023-05-11T08:39:21.549Z,12.79
2023-05-11T08:42:16.290Z,12.89
2023-05-11T08:44:59.810Z,12.54
2023-05-11T08:47:46.693Z,12.22
2023-05-11T08:50:31.235Z,12.28
2023-05-11T08:53:14.987Z,12.10
2023-05-11T08:56:01.295Z,11.77
2023-05-11T08:58:51.212Z,11.35
2023-05-11T09:01:37.760Z,11.33
2023-05-11T09:04:22.521Z,11.26
2023-05-11T09:07:09.256Z,11.12
2023-05-11T09:09:52.881Z,11.23
2023-05-11T09:12:38.000Z,11.60
2023-05-11T09:15:23.302Z,12.03
2023-05-11T09:18:07.166Z,12.17
2023-05-11T09:20:52.559Z,12.14
2023-05-11T09:23:35.790Z,11.88
2023-05-11T09:26:22.120Z,11.93
2023-05-11T09:29:05.889Z,11.89
2023-05-11T09:31:50.587Z,11.74
2023-05-11T09:34:36.487Z,11.41
2023-05-11T09:37:26.136Z,11.47
2023-05-11T09:42:58.555Z,11.05
2023-05-11T09:45:42.851Z,10.83
2023-05-11T09:48:29.423Z,10.87
2023-05-11T09:51:13.287Z,11.18
2023-05-11T09:53:56.619Z,11.29
2023-05-11T09:56:48.367Z,11.31
2023-05-11T09:59:42.250Z,11.32
2023-05-11T10:02:27.457Z,11.56
2023-05-11T10:05:15.549Z,11.41
2023-05-11T10:08:00.473Z,11.84
2023-05-11T10:10:45.619Z,12.09
2023-05-11T10:13:29.694Z,12.39
2023-05-11T10:16:17.810Z,13.01
2023-05-11T10:19:01.760Z,13.25
2023-05-11T10:21:49.714Z,13.14
2023-05-11T10:24:34.901Z,12.99
2023-05-11T10:27:18.409Z,13.10
2023-05-11T10:30:04.851Z,12.91
2023-05-11T10:32:48.251Z,12.94
2023-05-11T10:35:33.240Z,13.19
2023-05-11T10:38:20.308Z,14.70
2023-05-11T10:41:15.683Z,15.74
2023-05-11T10:44:38.438Z,15.68
2023-05-11T10:47:43.402Z,15.14
2023-05-11T10:50:54.581Z,14.74
2023-05-11T10:54:04.637Z,14.16
2023-05-11T10:57:10.385Z,13.67
2023-05-11T11:00:31.353Z,13.83
2023-05-11T11:03:15.933Z,13.85
2023-05-11T11:06:01.118Z,14.37
2023-05-11T11:09:01.974Z,14.38
2023-05-11T11:11:51.336Z,14.71
2023-05-11T11:14:56.179Z,14.67
2023-05-11T11:17:44.863Z,14.28
2023-05-11T11:20:55.996Z,14.40
2023-05-11T11:23:44.519Z,14.47
2023-05-11T11:26:52.636Z,14.90
2023-05-11T11:29:36.397Z,15.66
2023-05-11T11:32:29.159Z,16.02
2023-05-11T11:35:46.041Z,16.32
2023-05-11T11:38:29.729Z,17.06
2023-05-11T11:41:13.511Z,17.44
2023-05-11T11:44:00.642Z,16.91
2023-05-11T11:46:45.940Z,17.04
2023-05-11T11:49:29.971Z,17.75
2023-05-11T11:52:14.150Z,17.17
2023-05-11T11:55:00.847Z,16.96
2023-05-11T11:57:49.397Z,16.81
2023-05-11T12:00:34.201Z,16.66
2023-05-11T12:03:24.355Z,16.74
2023-05-11T12:06:09.176Z,16.97
2023-05-11T12:08:53.111Z,17.44
2023-05-11T12:11:38.803Z,17.71
2023-05-11T12:14:23.491Z,17.27
2023-05-11T12:17:15.423Z,16.76
2023-05-11T12:20:15.658Z,16.30
2023-05-11T12:23:00.393Z,15.90
2023-05-11T12:25:43.539Z,16.34
2023-05-11T12:28:28.934Z,16.61
2023-05-11T12:31:12.145Z,16.80
2023-05-11T12:33:56.905Z,16.43
2023-05-11T12:36:40.824Z,16.15
2023-05-11T12:39:26.969Z,15.78
2023-05-11T12:42:10.500Z,15.73
2023-05-11T12:44:54.160Z,15.19
2023-05-11T12:47:37.546Z,15.44
2023-05-11T12:50:25.140Z,15.15
2023-05-11T12:53:18.601Z,15.40
2023-05-11T12:56:01.812Z,15.29
2023-05-11T12:58:47.263Z,15.36
2023-05-11T13:01:33.536Z,15.66
2023-05-11T13:04:17.002Z,15.90
2023-05-11T13:07:01.599Z,16.25
2023-05-11T13:09:58.453Z,16.28
2023-05-11T13:12:54.931Z,16.06
2023-05-11T13:15:52.566Z,16.12
2023-05-11T13:18:35.757Z,15.70
2023-05-11T13:21:20.818Z,15.71
2023-05-11T13:24:05.913Z,15.68
2023-05-11T13:26:49.125Z,15.80
2023-05-11T13:29:32.300Z,15.86
2023-05-11T13:32:16.106Z,15.66
2023-05-11T13:34:59.510Z,15.42
2023-05-11T13:37:43.106Z,15.08
2023-05-11T13:40:28.842Z,15.07
2023-05-11T13:43:13.344Z,15.42
2023-05-11T13:45:56.594Z,15.32
2023-05-11T13:48:39.908Z,14.93
2023-05-11T13:51:23.262Z,14.74
2023-05-11T13:54:07.534Z,14.63
2023-05-11T13:56:54.736Z,14.59
2023-05-11T13:59:38.019Z,14.68
2023-05-11T14:02:21.201Z,14.63
2023-05-11T14:05:04.774Z,14.57
2023-05-11T14:07:49.138Z,14.72
2023-05-11T14:10:32.538Z,14.62
2023-05-11T14:13:17.238Z,14.38
2023-05-11T14:16:00.731Z,14.07
2023-05-11T14:18:44.516Z,14.02
2023-05-11T14:21:27.729Z,14.01
2023-05-11T14:24:12.670Z,14.09
2023-05-11T14:26:57.730Z,13.87
2023-05-11T14:29:44.149Z,13.91
2023-05-11T14:32:28.418Z,13.81
2023-05-11T14:35:12.043Z,13.70
2023-05-11T14:37:57.627Z,13.42
2023-05-11T14:40:41.307Z,13.26
2023-05-11T14:43:24.485Z,13.39
2023-05-11T14:46:09.397Z,13.50
2023-05-11T14:48:53.989Z,13.26
2023-05-11T14:51:39.425Z,13.22
2023-05-11T14:54:23.232Z,13.11
2023-05-11T14:57:06.910Z,12.89
2023-05-11T14:59:58.855Z,12.86
2023-05-11T15:02:44.999Z,12.94
2023-05-11T15:05:28.366Z,12.85
2023-05-11T15:08:25.705Z,12.67
2023-05-11T15:11:12.940Z,12.65
2023-05-11T15:13:56.324Z,12.49
2023-05-11T15:16:39.932Z,12.45
2023-05-11T15:19:24.512Z,12.49
2023-05-11T15:22:07.736Z,12.51
2023-05-11T15:24:52.237Z,12.48
2023-05-11T15:27:35.536Z,12.47
2023-05-11T15:30:18.666Z,12.46
2023-05-11T15:33:03.575Z,12.24
2023-05-11T15:35:50.324Z,12.23
2023-05-11T15:38:33.438Z,12.10
2023-05-11T15:41:16.685Z,12.19
2023-05-11T15:44:01.627Z,12.11
2023-05-11T15:46:44.721Z,11.95
2023-05-11T15:49:28.075Z,11.92
2023-05-11T15:52:12.724Z,11.92
2023-05-11T15:54:58.819Z,11.96
2023-05-11T15:57:42.607Z,11.93
2023-05-11T16:00:26.618Z,11.86
2023-05-11T16:03:12.992Z,11.88
2023-05-11T16:05:56.409Z,11.88
2023-05-11T16:08:42.620Z,11.78
2023-05-11T16:11:28.445Z,11.80
2023-05-11T16:14:12.040Z,11.91
2023-05-11T16:16:55.419Z,11.83
2023-05-11T16:19:41.577Z,11.77
2023-05-11T16:22:25.313Z,11.83
2023-05-11T16:25:10.884Z,11.89
2023-05-11T16:27:54.428Z,11.97
2023-05-11T16:30:38.624Z,11.89
2023-05-11T16:33:22.257Z,11.88
2023-05-11T16:36:07.325Z,11.86
2023-05-11T16:38:50.886Z,11.98
2023-05-11T16:41:35.748Z,11.88
2023-05-11T16:44:19.759Z,11.89
2023-05-11T16:47:04.215Z,11.94
2023-05-11T16:49:47.620Z,11.88
2023-05-11T16:52:30.851Z,11.84
2023-05-11T16:55:16.177Z,11.72
2023-05-11T16:58:02.973Z,11.57
2023-05-11T17:00:46.829Z,11.58
2023-05-11T17:03:32.915Z,11.69
2023-05-11T17:06:21.122Z,11.71
2023-05-11T17:09:05.189Z,11.72
2023-05-11T17:11:50.120Z,11.68
2023-05-11T17:14:35.461Z,11.76
2023-05-11T17:17:20.600Z,11.76
2023-05-11T17:20:08.223Z,11.57
2023-05-11T17:22:51.626Z,11.65
2023-05-11T17:25:38.968Z,11.49
2023-05-11T17:28:22.560Z,11.52
2023-05-11T17:31:14.904Z,11.52
2023-05-11T17:33:58.332Z,11.49
2023-05-11T17:36:42.143Z,11.46
2023-05-11T17:39:26.604Z,11.42
2023-05-11T17:42:12.230Z,11.44
2023-05-11T17:44:58.120Z,11.41
2023-05-11T17:47:44.545Z,11.41
2023-05-11T17:50:29.347Z,11.40
2023-05-11T17:53:13.266Z,11.36
2023-05-11T17:56:00.354Z,11.40
2023-05-11T17:58:44.310Z,11.45
2023-05-11T18:01:27.926Z,11.40
2023-05-11T18:04:12.576Z,11.54
2023-05-11T18:06:55.852Z,11.58
2023-05-11T18:09:39.061Z,11.63
2023-05-11T18:12:22.451Z,11.62
2023-05-11T18:15:06.474Z,11.54
2023-05-11T18:17:49.901Z,11.49
2023-05-11T18:20:34.548Z,11.52
2023-05-11T18:23:17.951Z,11.49
2023-05-11T18:26:01.299Z,11.60
2023-05-11T18:28:46.261Z,11.51
2023-05-11T18:31:31.204Z,11.52
2023-05-11T18:34:18.853Z,11.51
2023-05-11T18:37:03.643Z,11.46
2023-05-11T18:39:50.281Z,11.54
2023-05-11T18:42:33.437Z,11.57
2023-05-11T18:45:17.395Z,11.47
2023-05-11T18:48:01.540Z,11.50
2023-05-11T18:50:44.848Z,11.54
2023-05-11T18:53:29.495Z,11.43
2023-05-11T18:56:15.579Z,11.48
2023-05-11T18:58:59.114Z,11.49
2023-05-11T19:01:47.878Z,11.60
2023-05-11T19:04:32.001Z,11.51
2023-05-11T19:07:19.913Z,11.45
2023-05-11T19:10:05.309Z,11.42
2023-05-11T19:12:48.491Z,11.41
2023-05-11T19:15:31.977Z,11.52
2023-05-11T19:18:15.147Z,11.51
2023-05-11T19:20:58.392Z,11.45
2023-05-11T19:23:42.329Z,11.31
2023-05-11T19:26:28.698Z,11.39
2023-05-11T19:29:13.531Z,11.38
2023-05-11T19:31:57.201Z,11.39
2023-05-11T19:34:40.832Z,11.19
2023-05-11T19:37:24.608Z,11.12
2023-05-11T19:43:07.440Z,10.96
2023-05-11T19:45:50.915Z,10.94
2023-05-11T19:48:37.009Z,10.93
2023-05-11T19:51:20.331Z,10.95
2023-05-11T19:54:04.764Z,10.88
2023-05-11T19:56:48.815Z,10.85
2023-05-11T19:59:33.713Z,10.80
2023-05-11T20:02:17.183Z,10.81
2023-05-11T20:05:02.845Z,10.86
2023-05-11T20:07:48.268Z,10.78
2023-05-11T20:10:32.413Z,10.83
2023-05-11T20:13:16.122Z,10.78
2023-05-11T20:16:00.997Z,10.81
2023-05-11T20:18:44.361Z,10.70
2023-05-11T20:21:31.795Z,10.76
2023-05-11T20:24:15.770Z,10.66
2023-05-11T20:27:01.936Z,10.72
2023-05-11T20:29:48.349Z,10.75
2023-05-11T20:32:33.164Z,10.72
2023-05-11T20:35:16.827Z,10.82
2023-05-11T20:38:02.486Z,10.76
2023-05-11T20:40:45.695Z,10.81
2023-05-11T20:43:29.647Z,10.82
2023-05-11T20:46:13.193Z,10.79
2023-05-11T20:48:59.204Z,10.69
2023-05-11T20:51:43.976Z,10.73
2023-05-11T20:54:27.187Z,10.65
2023-05-11T20:57:10.503Z,10.64
2023-05-11T21:02:40.722Z,10.68
2023-05-11T21:05:25.677Z,10.61
2023-05-11T21:08:09.035Z,10.54
2023-05-11T21:10:53.811Z,10.57
2023-05-11T21:13:37.839Z,10.48
2023-05-11T21:16:21.310Z,10.47
2023-05-11T21:19:06.852Z,10.34
2023-05-11T21:21:51.670Z,10.35
2023-05-11T21:24:37.730Z,10.38
2023-05-11T21:27:21.193Z,10.36
2023-05-11T21:30:04.975Z,10.20
2023-05-11T21:32:50.780Z,10.16
2023-05-11T21:35:34.124Z,10.11
2023-05-11T21:38:18.889Z,10.20
2023-05-11T21:41:02.183Z,10.20
2023-05-11T21:43:45.912Z,10.13
2023-05-11T21:46:29.200Z,10.11
2023-05-11T21:49:13.629Z,10.12
2023-05-11T21:51:57.257Z,10.15
2023-05-11T21:54:41.935Z,10.21
2023-05-11T21:57:25.383Z,10.09
2023-05-11T22:00:10.931Z,10.19
2023-05-11T22:02:54.127Z,10.08
2023-05-11T22:05:37.413Z,10.16
2023-05-11T22:08:20.764Z,10.08
2023-05-11T22:11:05.544Z,10.05
2023-05-11T22:13:48.708Z,9.99
2023-05-11T22:16:32.863Z,10.02
2023-05-11T22:19:16.253Z,9.99
2023-05-11T22:21:59.483Z,10.01
2023-05-11T22:24:42.992Z,9.95
2023-05-11T22:27:27.947Z,10.00
2023-05-11T22:30:12.173Z,10.13
2023-05-11T22:32:55.807Z,10.08
2023-05-11T22:35:40.094Z,10.05
2023-05-11T22:38:23.587Z,9.97
2023-05-11T22:41:06.780Z,9.86
2023-05-11T22:43:51.376Z,9.95
2023-05-11T22:46:34.838Z,9.97
2023-05-11T22:49:18.082Z,9.89
2023-05-11T22:52:01.194Z,9.82
2023-05-11T22:54:44.573Z,9.84
2023-05-11T22:57:27.852Z,9.87
2023-05-11T23:00:13.901Z,9.78
2023-05-11T23:02:59.574Z,9.82
2023-05-11T23:05:43.293Z,9.85
2023-05-11T23:08:26.860Z,9.97
2023-05-11T23:11:10.116Z,9.87
2023-05-11T23:13:53.580Z,9.88
2023-05-11T23:16:38.272Z,9.89
2023-05-11T23:19:25.202Z,9.91
2023-05-11T23:22:08.896Z,9.90
2023-05-11T23:24:52.181Z,9.85
2023-05-11T23:27:35.376Z,9.71
2023-05-11T23:30:19.615Z,9.74
2023-05-11T23:33:04.535Z,9.59
2023-05-11T23:35:48.955Z,9.71
2023-05-11T23:38:32.117Z,9.63
2023-05-11T23:41:15.338Z,9.62
2023-05-11T23:43:58.744Z,9.58
2023-05-11T23:46:43.491Z,9.56
2023-05-11T23:49:28.106Z,9.54
2023-05-11T23:52:11.502Z,9.55
2023-05-11T23:54:55.002Z,9.56
2023-05-11T23:57:38.193Z,9.60
